createdAt,value
2022-12-04T00:02:19.972Z,55.10
2022-12-04T00:04:53.495Z,55.00
2022-12-04T00:07:24.393Z,54.80
2022-12-04T00:09:57.532Z,56.00
2022-12-04T00:12:30.979Z,56.50
2022-12-04T00:15:24.938Z,56.70
2022-12-04T00:17:52.787Z,56.50
2022-12-04T00:20:26.460Z,57.10
2022-12-04T00:22:57.287Z,57.70
2022-12-04T00:25:28.142Z,56.70
2022-12-04T00:28:01.301Z,56.60
2022-12-04T00:30:33.422Z,56.50
2022-12-04T00:33:04.306Z,56.60
2022-12-04T00:35:37.911Z,56.70
2022-12-04T00:38:08.718Z,56.80
2022-12-04T00:40:39.584Z,55.60
2022-12-04T00:43:12.873Z,56.60
2022-12-04T00:45:43.683Z,57.00
2022-12-04T00:48:14.654Z,56.60
2022-12-04T00:50:48.529Z,56.70
2022-12-04T00:53:20.520Z,57.20
2022-12-04T00:55:51.341Z,56.60
2022-12-04T00:58:22.318Z,57.40
2022-12-04T01:00:53.556Z,57.50
2022-12-04T01:03:24.434Z,57.30
2022-12-04T01:05:59.073Z,56.50
2022-12-04T01:08:30.127Z,57.60
2022-12-04T01:11:01.322Z,56.50
2022-12-04T01:13:32.064Z,58.20
2022-12-04T01:16:02.979Z,59.40
2022-12-04T01:18:33.838Z,60.30
2022-12-04T01:21:08.542Z,58.30
2022-12-04T01:23:39.349Z,60.20
2022-12-04T01:26:13.182Z,58.50
2022-12-04T01:28:44.464Z,59.90
2022-12-04T01:31:18.865Z,58.30
2022-12-04T01:33:52.096Z,59.50
2022-12-04T01:36:27.584Z,59.80
2022-12-04T01:38:59.351Z,61.20
2022-12-04T01:41:34.797Z,58.20
2022-12-04T01:44:11.095Z,59.80
2022-12-04T01:46:42.719Z,58.30
2022-12-04T01:49:17.789Z,59.40
2022-12-04T01:51:54.483Z,58.80
2022-12-04T01:54:30.458Z,58.70
2022-12-04T01:57:06.937Z,60.00
2022-12-04T01:59:42.654Z,59.80
2022-12-04T02:02:19.049Z,62.00
2022-12-04T02:04:56.208Z,61.10
2022-12-04T02:07:30.312Z,61.20
2022-12-04T02:10:06.352Z,60.90
2022-12-04T02:12:44.986Z,62.20
2022-12-04T02:15:22.814Z,59.90
2022-12-04T02:18:01.190Z,60.80
2022-12-04T02:20:40.454Z,60.60
2022-12-04T02:23:40.503Z,62.10
2022-12-04T02:26:27.966Z,63.80
2022-12-04T02:29:09.076Z,62.00
2022-12-04T02:31:45.748Z,61.80
2022-12-04T02:34:21.020Z,61.60
2022-12-04T02:36:57.662Z,58.80
2022-12-04T02:39:34.845Z,60.90
2022-12-04T02:42:15.601Z,60.00
2022-12-04T02:44:52.427Z,59.50
2022-12-04T02:47:26.627Z,59.20
2022-12-04T02:50:01.023Z,61.40
2022-12-04T02:52:38.488Z,59.90
2022-12-04T02:55:17.420Z,60.30
2022-12-04T02:57:52.872Z,61.80
2022-12-04T03:00:27.946Z,61.30
2022-12-04T03:03:01.879Z,63.40
2022-12-04T03:05:45.958Z,60.30
2022-12-04T03:08:22.221Z,60.80
2022-12-04T03:10:57.569Z,59.80
2022-12-04T03:13:35.355Z,59.70
2022-12-04T03:16:13.474Z,61.00
2022-12-04T03:18:47.875Z,62.40
2022-12-04T03:21:23.207Z,61.70
2022-12-04T03:23:59.633Z,59.50
2022-12-04T03:26:37.147Z,61.30
2022-12-04T03:29:14.959Z,61.70
2022-12-04T03:31:51.820Z,60.30
2022-12-04T03:34:29.636Z,59.80
2022-12-04T03:37:06.161Z,59.50
2022-12-04T03:39:40.643Z,60.10
2022-12-04T03:42:18.958Z,60.20
2022-12-04T03:44:55.795Z,60.50
2022-12-04T03:47:36.417Z,61.50
2022-12-04T03:50:16.478Z,60.40
2022-12-04T03:52:51.959Z,59.20
2022-12-04T03:55:27.860Z,59.10
2022-12-04T03:58:04.994Z,59.70
2022-12-04T04:00:39.587Z,60.80
2022-12-04T04:03:19.010Z,60.80
2022-12-04T04:05:55.558Z,59.60
2022-12-04T04:08:34.185Z,58.50
2022-12-04T04:11:13.272Z,59.70
2022-12-04T04:14:01.638Z,58.80
2022-12-04T04:16:50.708Z,61.50
2022-12-04T04:19:37.560Z,61.20
2022-12-04T04:22:25.178Z,61.70
2022-12-04T04:25:02.343Z,59.10
2022-12-04T04:27:33.555Z,60.00
2022-12-04T04:30:04.633Z,59.50
2022-12-04T04:32:40.958Z,60.80
2022-12-04T04:35:21.977Z,60.30
2022-12-04T04:37:59.796Z,61.30
2022-12-04T04:40:37.270Z,59.60
2022-12-04T04:43:13.639Z,59.70
2022-12-04T04:45:50.392Z,59.30
2022-12-04T04:48:28.158Z,58.80
2022-12-04T04:51:03.049Z,59.10
2022-12-04T04:53:39.766Z,59.80
2022-12-04T04:56:11.960Z,58.30
2022-12-04T04:58:42.991Z,57.80
2022-12-04T05:01:17.083Z,57.90
2022-12-04T05:03:48.156Z,58.20
2022-12-04T05:06:21.788Z,59.50
2022-12-04T05:08:52.547Z,57.80
2022-12-04T05:11:23.936Z,57.20
2022-12-04T05:13:55.458Z,58.20
2022-12-04T05:16:27.339Z,58.30
2022-12-04T05:19:10.666Z,58.00
2022-12-04T05:21:44.284Z,58.90
2022-12-04T05:24:17.688Z,56.30
2022-12-04T05:26:48.449Z,56.60
2022-12-04T05:29:19.257Z,56.60
2022-12-04T05:31:50.074Z,56.60
2022-12-04T05:34:21.297Z,55.10
2022-12-04T05:36:55.442Z,53.70
2022-12-04T05:39:27.714Z,55.10
2022-12-04T05:42:01.482Z,55.50
2022-12-04T05:44:32.478Z,55.10
2022-12-04T05:47:03.437Z,55.10
2022-12-04T05:49:36.079Z,53.10
2022-12-04T05:52:10.579Z,53.60
2022-12-04T05:54:41.666Z,54.10
2022-12-04T05:57:12.457Z,54.30
2022-12-04T05:59:43.553Z,55.60
2022-12-04T06:02:14.560Z,54.40
2022-12-04T06:04:45.482Z,54.30
2022-12-04T06:07:21.436Z,54.70
2022-12-04T06:09:52.366Z,55.30
2022-12-04T06:12:23.152Z,53.40
2022-12-04T06:14:53.984Z,55.00
2022-12-04T06:17:25.569Z,54.30
2022-12-04T06:19:56.791Z,55.60
2022-12-04T06:22:30.413Z,54.60
2022-12-04T06:25:01.594Z,55.40
2022-12-04T06:27:32.695Z,54.20
2022-12-04T06:30:04.535Z,53.60
2022-12-04T06:32:35.403Z,53.90
2022-12-04T06:35:06.994Z,54.20
2022-12-04T06:37:40.344Z,54.60
2022-12-04T06:40:12.336Z,54.20
2022-12-04T06:42:43.105Z,55.10
2022-12-04T06:45:15.292Z,55.50
2022-12-04T06:47:46.075Z,53.20
2022-12-04T06:50:17.182Z,52.60
2022-12-04T06:52:51.547Z,54.10
2022-12-04T06:55:23.640Z,53.10
2022-12-04T06:57:54.415Z,54.80
2022-12-04T07:00:25.636Z,54.90
2022-12-04T07:02:57.620Z,54.30
2022-12-04T07:05:30.223Z,54.00
2022-12-04T07:08:03.688Z,55.10
2022-12-04T07:10:34.483Z,52.90
2022-12-04T07:13:06.911Z,53.50
2022-12-04T07:15:40.391Z,54.30
2022-12-04T07:18:11.177Z,55.50
2022-12-04T07:20:43.444Z,54.70
2022-12-04T07:23:16.863Z,53.80
2022-12-04T07:25:47.636Z,54.50
2022-12-04T07:28:18.411Z,54.50
2022-12-04T07:30:49.230Z,53.50
2022-12-04T07:33:20.046Z,54.20
2022-12-04T07:35:58.627Z,53.80
2022-12-04T07:38:32.869Z,55.70
2022-12-04T07:41:05.458Z,54.50
2022-12-04T07:43:37.250Z,55.50
2022-12-04T07:46:09.978Z,55.20
2022-12-04T07:48:42.288Z,55.70
2022-12-04T07:51:17.638Z,54.60
2022-12-04T07:53:51.735Z,54.90
2022-12-04T07:56:23.354Z,54.10
2022-12-04T07:58:54.193Z,55.60
2022-12-04T08:01:27.821Z,54.80
2022-12-04T08:04:00.529Z,54.40
2022-12-04T08:06:33.411Z,55.40
2022-12-04T08:09:10.577Z,55.30
2022-12-04T08:11:41.722Z,55.50
2022-12-04T08:14:15.058Z,56.00
2022-12-04T08:16:52.324Z,54.90
2022-12-04T08:19:26.062Z,54.00
2022-12-04T08:21:58.566Z,54.60
2022-12-04T08:24:32.027Z,54.60
2022-12-04T08:27:02.860Z,54.70
2022-12-04T08:29:33.676Z,54.30
2022-12-04T08:32:05.136Z,54.80
2022-12-04T08:34:36.155Z,54.70
2022-12-04T08:37:06.947Z,55.40
2022-12-04T08:39:40.291Z,54.90
2022-12-04T08:42:11.042Z,54.50
2022-12-04T08:44:41.869Z,54.60
2022-12-04T08:47:12.642Z,54.60
2022-12-04T08:49:43.460Z,55.20
2022-12-04T08:52:14.326Z,55.00
2022-12-04T08:54:47.887Z,54.50
2022-12-04T08:57:20.000Z,54.60
2022-12-04T08:59:53.486Z,54.50
2022-12-04T09:02:25.147Z,54.60
2022-12-04T09:04:56.296Z,55.70
2022-12-04T09:07:27.259Z,55.00
2022-12-04T09:10:01.200Z,55.60
2022-12-04T09:12:32.682Z,56.90
2022-12-04T09:15:03.423Z,55.30
2022-12-04T09:17:34.188Z,54.90
2022-12-04T09:20:06.223Z,54.00
2022-12-04T09:23:02.307Z,54.80
2022-12-04T09:25:40.501Z,54.80
2022-12-04T09:28:11.526Z,55.50
2022-12-04T09:30:44.768Z,55.60
2022-12-04T09:33:16.169Z,55.60
2022-12-04T09:35:47.150Z,56.90
2022-12-04T09:38:18.081Z,55.60
2022-12-04T09:41:02.162Z,55.60
2022-12-04T09:43:38.138Z,56.80
2022-12-04T09:46:14.849Z,56.20
2022-12-04T09:48:51.226Z,56.00
2022-12-04T09:51:26.331Z,56.60
2022-12-04T09:54:01.991Z,57.10
2022-12-04T09:56:35.562Z,56.80
2022-12-04T09:59:13.842Z,57.00
2022-12-04T10:01:48.145Z,57.00
2022-12-04T10:04:19.360Z,55.70
2022-12-04T10:06:54.888Z,56.80
2022-12-04T10:09:30.226Z,56.80
2022-12-04T10:12:12.343Z,57.00
2022-12-04T10:14:56.349Z,57.00
2022-12-04T10:17:47.843Z,57.70
2022-12-04T10:20:36.332Z,57.00
2022-12-04T10:23:15.905Z,57.20
2022-12-04T10:25:46.837Z,57.10
2022-12-04T10:28:27.229Z,57.20
2022-12-04T10:31:02.969Z,56.70
2022-12-04T10:33:40.001Z,57.10
2022-12-04T10:36:17.779Z,57.10
2022-12-04T10:38:54.093Z,57.20
2022-12-04T10:41:30.341Z,56.60
2022-12-04T10:44:03.896Z,57.00
2022-12-04T10:46:41.750Z,57.70
2022-12-04T10:49:20.199Z,57.60
2022-12-04T10:51:51.707Z,57.30
2022-12-04T10:54:25.117Z,57.30
2022-12-04T10:56:58.623Z,57.30
2022-12-04T10:59:33.008Z,55.40
2022-12-04T11:02:07.514Z,57.80
2022-12-04T11:04:40.242Z,57.30
2022-12-04T11:07:22.894Z,57.30
2022-12-04T11:10:03.196Z,57.50
2022-12-04T11:12:34.433Z,58.80
2022-12-04T11:15:16.545Z,58.00
2022-12-04T11:17:47.616Z,58.20
2022-12-04T11:20:21.388Z,57.30
2022-12-04T11:22:57.720Z,58.30
2022-12-04T11:25:30.666Z,58.70
2022-12-04T11:28:05.810Z,57.50
2022-12-04T11:30:41.296Z,57.50
2022-12-04T11:33:21.922Z,58.00
2022-12-04T11:35:58.020Z,58.60
2022-12-04T11:38:40.680Z,57.60
2022-12-04T11:41:28.448Z,58.30
2022-12-04T11:44:02.157Z,59.20
2022-12-04T11:46:37.529Z,58.00
2022-12-04T11:49:08.645Z,59.10
2022-12-04T11:51:51.219Z,57.80
2022-12-04T11:54:34.050Z,58.40
2022-12-04T11:57:13.681Z,57.00
2022-12-04T12:00:00.126Z,57.50
2022-12-04T12:02:47.179Z,57.60
2022-12-04T12:06:00.104Z,57.80
2022-12-04T12:08:46.142Z,57.70
2022-12-04T12:11:24.592Z,57.80
2022-12-04T12:14:04.665Z,57.50
2022-12-04T12:16:51.656Z,58.00
2022-12-04T12:19:49.735Z,57.60
2022-12-04T12:22:31.322Z,57.50
2022-12-04T12:25:11.830Z,58.20
2022-12-04T12:28:14.175Z,60.40
2022-12-04T12:31:05.541Z,59.20
2022-12-04T12:33:42.450Z,59.80
2022-12-04T12:36:21.568Z,57.90
2022-12-04T12:38:58.987Z,58.50
2022-12-04T12:41:34.845Z,57.60
2022-12-04T12:44:09.891Z,58.10
2022-12-04T12:46:48.960Z,58.50
2022-12-04T12:49:26.206Z,58.80
2022-12-04T12:52:06.038Z,57.70
2022-12-04T12:54:50.847Z,57.70
2022-12-04T12:57:34.800Z,57.50
2022-12-04T13:00:10.092Z,57.70
2022-12-04T13:02:50.307Z,58.10
2022-12-04T13:05:27.787Z,57.70
2022-12-04T13:08:09.179Z,57.90
2022-12-04T13:10:46.637Z,57.60
2022-12-04T13:13:26.002Z,57.70
2022-12-04T13:16:02.109Z,58.30
2022-12-04T13:18:39.497Z,57.80
2022-12-04T13:21:13.342Z,57.00
2022-12-04T13:23:58.639Z,56.80
2022-12-04T13:26:49.526Z,56.90
2022-12-04T13:29:33.180Z,56.80
2022-12-04T13:32:12.047Z,56.60
2022-12-04T13:35:00.167Z,55.60
2022-12-04T13:37:45.393Z,55.80
2022-12-04T13:40:35.415Z,54.90
2022-12-04T13:43:39.806Z,54.90
2022-12-04T13:46:25.565Z,54.40
2022-12-04T13:48:56.919Z,53.60
2022-12-04T13:51:38.509Z,55.10
2022-12-04T13:54:26.171Z,56.10
2022-12-04T13:57:12.729Z,55.20
2022-12-04T13:59:47.654Z,54.50
2022-12-04T14:02:32.350Z,54.40
2022-12-04T14:05:07.678Z,54.10
2022-12-04T14:07:40.615Z,55.10
2022-12-04T14:10:31.452Z,53.10
2022-12-04T14:13:08.541Z,55.40
2022-12-04T14:15:40.201Z,54.80
2022-12-04T14:18:23.238Z,55.30
2022-12-04T14:21:03.149Z,54.10
2022-12-04T14:23:42.615Z,54.90
2022-12-04T14:26:37.425Z,56.10
2022-12-04T14:29:37.905Z,55.60
2022-12-04T14:32:18.539Z,55.50
2022-12-04T14:34:52.034Z,56.40
2022-12-04T14:37:28.226Z,54.60
2022-12-04T14:40:01.901Z,55.40
2022-12-04T14:42:39.214Z,55.10
2022-12-04T14:45:26.645Z,55.80
2022-12-04T14:48:26.687Z,57.00
2022-12-04T14:51:05.207Z,57.00
2022-12-04T14:53:44.398Z,57.80
2022-12-04T14:56:35.496Z,57.00
2022-12-04T14:59:10.114Z,57.80
2022-12-04T15:01:44.648Z,59.50
2022-12-04T15:04:26.733Z,58.00
2022-12-04T15:07:00.413Z,57.90
2022-12-04T15:09:44.523Z,58.30
2022-12-04T15:12:34.836Z,58.70
2022-12-04T15:15:14.395Z,58.60
2022-12-04T15:17:59.822Z,58.00
2022-12-04T15:20:37.545Z,57.90
2022-12-04T15:23:11.163Z,57.90
2022-12-04T15:25:47.016Z,57.90
2022-12-04T15:28:21.658Z,58.70
2022-12-04T15:30:55.372Z,57.90
2022-12-04T15:33:32.543Z,57.80
2022-12-04T15:36:06.098Z,57.80
2022-12-04T15:38:38.079Z,57.80
2022-12-04T15:41:09.101Z,60.00
2022-12-04T15:43:44.709Z,59.70
2022-12-04T15:46:17.008Z,58.50
2022-12-04T15:48:52.103Z,57.80
2022-12-04T15:51:24.602Z,58.70
2022-12-04T15:53:58.678Z,58.30
2022-12-04T15:56:32.057Z,57.80
2022-12-04T15:59:10.633Z,59.20
2022-12-04T16:01:42.906Z,59.30
2022-12-04T16:04:26.540Z,58.00
2022-12-04T16:06:57.287Z,58.00
2022-12-04T16:09:30.433Z,58.00
2022-12-04T16:12:03.345Z,57.00
2022-12-04T16:14:34.169Z,57.90
2022-12-04T16:17:06.560Z,57.30
2022-12-04T16:19:41.984Z,57.30
2022-12-04T16:22:19.337Z,57.80
2022-12-04T16:24:54.778Z,59.00
2022-12-04T16:27:27.057Z,59.30
2022-12-04T16:29:57.860Z,59.50
2022-12-04T16:32:32.872Z,58.00
2022-12-04T16:35:06.604Z,58.00
2022-12-04T16:37:37.928Z,59.20
2022-12-04T16:40:13.511Z,58.70
2022-12-04T16:42:47.145Z,58.40
2022-12-04T16:45:27.503Z,59.90
2022-12-04T16:48:00.972Z,58.10
2022-12-04T16:50:34.381Z,58.30
2022-12-04T16:53:06.858Z,59.20
2022-12-04T16:55:40.129Z,58.40
2022-12-04T16:58:10.932Z,58.30
2022-12-04T17:00:43.648Z,58.50
2022-12-04T17:03:21.523Z,58.20
2022-12-04T17:05:54.941Z,59.30
2022-12-04T17:08:26.531Z,59.50
2022-12-04T17:10:58.047Z,59.20
2022-12-04T17:13:28.837Z,59.40
2022-12-04T17:16:00.843Z,62.00
2022-12-04T17:18:31.984Z,62.70
2022-12-04T17:21:08.316Z,62.50
2022-12-04T17:23:39.591Z,62.10
2022-12-04T17:26:12.099Z,63.60
2022-12-04T17:28:43.370Z,61.60
2022-12-04T17:31:18.001Z,62.70
2022-12-04T17:33:51.989Z,62.10
2022-12-04T17:36:27.792Z,63.30
2022-12-04T17:39:01.568Z,62.40
2022-12-04T17:41:33.982Z,62.60
2022-12-04T17:44:04.740Z,62.20
2022-12-04T17:46:38.836Z,63.00
2022-12-04T17:49:14.054Z,64.20
2022-12-04T17:51:47.721Z,63.30
2022-12-04T17:54:18.729Z,63.10
2022-12-04T17:56:57.577Z,62.50
2022-12-04T17:59:29.040Z,60.70
2022-12-04T18:01:59.830Z,62.90
2022-12-04T18:04:36.174Z,61.90
2022-12-04T18:07:09.886Z,61.20
2022-12-04T18:09:40.739Z,62.50
2022-12-04T18:12:12.265Z,65.50
2022-12-04T18:14:43.526Z,65.70
2022-12-04T18:17:14.435Z,65.40
2022-12-04T18:19:45.792Z,67.70
2022-12-04T18:22:19.192Z,68.30
2022-12-04T18:24:50.034Z,73.60
2022-12-04T18:27:21.276Z,77.50
2022-12-04T18:29:52.038Z,77.50
2022-12-04T18:32:22.860Z,79.60
2022-12-04T18:34:53.853Z,77.90
2022-12-04T18:37:27.415Z,77.90
2022-12-04T18:40:02.128Z,77.50
2022-12-04T18:42:35.740Z,80.70
2022-12-04T18:45:07.251Z,79.60
2022-12-04T18:47:40.985Z,79.90
2022-12-04T18:50:13.427Z,80.50
2022-12-04T18:52:50.329Z,82.40
2022-12-04T18:55:25.732Z,81.50
2022-12-04T18:57:56.568Z,84.60
2022-12-04T19:00:27.302Z,90.90
2022-12-04T19:02:58.810Z,91.40
2022-12-04T19:05:29.704Z,96.40
2022-12-04T19:08:03.321Z,96.40
2022-12-04T19:10:34.738Z,98.90
2022-12-04T19:13:06.008Z,99.30
2022-12-04T19:15:37.231Z,99.50
2022-12-04T19:18:08.190Z,98.90
2022-12-04T19:20:42.837Z,99.90
2022-12-04T19:23:16.266Z,99.90
2022-12-04T19:25:47.043Z,99.90
2022-12-04T19:28:17.802Z,99.90
2022-12-04T19:30:48.542Z,99.90
2022-12-04T19:33:19.294Z,99.90
2022-12-04T19:35:59.903Z,99.90
2022-12-04T19:38:36.475Z,99.90
2022-12-04T19:41:15.057Z,99.90
2022-12-04T19:43:47.700Z,99.90
2022-12-04T19:46:21.348Z,99.90
2022-12-04T19:48:52.730Z,99.90
2022-12-04T19:51:24.576Z,99.90
2022-12-04T19:53:58.518Z,99.90
2022-12-04T19:56:30.857Z,99.90
2022-12-04T19:59:04.712Z,99.90
2022-12-04T20:01:38.749Z,99.90
2022-12-04T20:04:10.946Z,99.90
2022-12-04T20:06:43.419Z,99.90
2022-12-04T20:09:20.803Z,99.90
2022-12-04T20:11:51.595Z,99.90
2022-12-04T20:14:22.381Z,99.90
2022-12-04T20:16:54.869Z,99.90
2022-12-04T20:19:26.407Z,99.90
2022-12-04T20:21:59.633Z,99.90
2022-12-04T20:24:33.149Z,99.90
2022-12-04T20:27:04.020Z,99.90
2022-12-04T20:29:34.871Z,99.90
2022-12-04T20:32:08.083Z,99.90
2022-12-04T20:34:43.447Z,99.90
2022-12-04T20:37:16.012Z,99.90
2022-12-04T20:39:49.350Z,99.90
2022-12-04T20:42:20.172Z,99.90
2022-12-04T20:44:50.942Z,99.90
2022-12-04T20:47:21.763Z,99.90
2022-12-04T20:49:52.530Z,99.90
2022-12-04T20:52:23.186Z,99.90
2022-12-04T20:55:00.016Z,99.90
2022-12-04T20:57:33.022Z,99.90
2022-12-04T21:00:05.868Z,99.90
2022-12-04T21:02:38.217Z,99.90
2022-12-04T21:05:10.022Z,99.90
2022-12-04T21:07:40.837Z,99.90
2022-12-04T21:10:16.101Z,99.90
2022-12-04T21:12:59.317Z,99.90
2022-12-04T21:15:42.665Z,99.90
2022-12-04T21:18:13.427Z,99.90
2022-12-04T21:20:44.172Z,99.90
2022-12-04T21:23:15.292Z,99.90
2022-12-04T21:25:48.766Z,99.90
2022-12-04T21:28:19.547Z,99.90
2022-12-04T21:30:50.545Z,99.90
2022-12-04T21:33:21.782Z,99.90
2022-12-04T21:35:52.581Z,99.90
2022-12-04T21:38:23.380Z,99.90
2022-12-04T21:40:56.982Z,99.90
2022-12-04T21:43:27.721Z,99.90
2022-12-04T21:46:08.848Z,99.90
2022-12-04T21:48:41.218Z,99.90
2022-12-04T21:51:26.850Z,99.90
2022-12-04T21:54:03.444Z,99.90
2022-12-04T21:56:37.097Z,99.90
2022-12-04T21:59:08.190Z,99.90
2022-12-04T22:01:39.415Z,99.90
2022-12-04T22:04:10.182Z,99.90
2022-12-04T22:06:42.888Z,99.90
2022-12-04T22:09:15.112Z,99.90
2022-12-04T22:11:49.006Z,99.90
2022-12-04T22:14:20.902Z,99.90
2022-12-04T22:16:55.786Z,99.90
2022-12-04T22:19:26.634Z,99.90
2022-12-04T22:21:57.431Z,99.90
2022-12-04T22:24:28.833Z,99.90
2022-12-04T22:27:03.719Z,99.90
2022-12-04T22:29:49.781Z,99.90
2022-12-04T22:32:21.619Z,99.90
2022-12-04T22:34:52.541Z,99.90
2022-12-04T22:37:27.839Z,99.90
2022-12-04T22:39:58.989Z,99.90
2022-12-04T22:42:32.513Z,99.90
2022-12-04T22:45:05.490Z,99.90
2022-12-04T22:47:38.051Z,99.90
2022-12-04T22:50:12.049Z,99.90
2022-12-04T22:52:42.824Z,99.90
2022-12-04T22:55:13.566Z,99.90
2022-12-04T22:57:46.924Z,99.90
2022-12-04T23:00:18.501Z,99.90
2022-12-04T23:02:49.291Z,99.90
2022-12-04T23:05:20.387Z,99.90
2022-12-04T23:07:51.287Z,99.90
2022-12-04T23:10:22.079Z,99.90
2022-12-04T23:12:58.410Z,99.90
2022-12-04T23:15:29.123Z,99.90
2022-12-04T23:18:00.269Z,99.90
2022-12-04T23:20:31.005Z,99.90
2022-12-04T23:23:01.753Z,99.90
2022-12-04T23:25:35.089Z,99.90
2022-12-04T23:28:08.428Z,99.90
2022-12-04T23:30:40.922Z,99.90
2022-12-04T23:33:11.867Z,99.90
2022-12-04T23:35:42.653Z,99.90
2022-12-04T23:38:17.326Z,99.90
2022-12-04T23:40:48.343Z,99.90
2022-12-04T23:43:23.285Z,99.90
2022-12-04T23:45:54.004Z,99.90
2022-12-04T23:48:28.412Z,99.90
2022-12-04T23:50:59.127Z,99.90
2022-12-04T23:53:30.350Z,99.90
2022-12-04T23:56:02.655Z,99.90
2022-12-04T23:58:37.430Z,99.90
